Time;durP1;ratioP1;P1;durP2;ratioP2;P2;SDS_P1;SDS_P2;PMS_P1;PMS_P2;Temp;Humidity;BMP_temperature;BMP_pressure;BME280_temperature;BME280_humidity;BME280_pressure;Samples;Min_cycle;Max_cycle;Signal;HPM_P1;HPM_P2
2022/04/29 00:00:34;;;;;;;3.47;2.00;;;6.30;99.90;;;;;;5100295;28;21168;-69
2022/04/29 00:03:00;;;;;;;7.40;2.70;;;6.30;99.90;;;;;;5105813;28;20511;-70
2022/04/29 00:05:26;;;;;;;5.13;2.80;;;6.20;99.90;;;;;;5100745;28;20765;-70
2022/04/29 00:07:52;;;;;;;5.00;2.50;;;6.20;99.90;;;;;;5105661;28;20437;-70
2022/04/29 00:10:19;;;;;;;7.20;2.90;;;6.20;99.90;;;;;;5076058;28;20435;-71
2022/04/29 00:12:48;;;;;;;6.60;3.10;;;6.20;99.90;;;;;;5101349;28;20468;-69
2022/04/29 00:15:15;;;;;;;6.40;2.87;;;6.20;99.90;;;;;;5103687;28;20433;-69
2022/04/29 00:17:42;;;;;;;3.27;2.07;;;6.10;99.90;;;;;;5105296;28;20451;-68
2022/04/29 00:20:09;;;;;;;7.50;2.87;;;6.10;99.90;;;;;;5103683;28;20437;-72
2022/04/29 00:22:35;;;;;;;3.80;2.23;;;6.10;99.90;;;;;;5101975;28;20485;-71
2022/04/29 00:25:01;;;;;;;6.50;2.63;;;6.00;99.90;;;;;;5104115;28;20457;-70
2022/04/29 00:27:27;;;;;;;8.30;3.30;;;5.90;99.90;;;;;;5092955;28;20503;-70
2022/04/29 00:29:52;;;;;;;8.10;3.20;;;5.90;99.90;;;;;;5100248;28;21195;-70
2022/04/29 00:32:18;;;;;;;4.50;2.23;;;5.90;99.90;;;;;;5102629;28;20180;-70
2022/04/29 00:34:44;;;;;;;4.73;2.77;;;5.80;99.90;;;;;;5104511;28;20266;-69
2022/04/29 00:37:12;;;;;;;4.97;2.73;;;5.90;99.90;;;;;;5100223;28;20179;-70
2022/04/29 00:39:38;;;;;;;5.50;2.83;;;5.80;99.90;;;;;;5092834;28;20191;-71
2022/04/29 00:42:24;;;;;;;4.47;2.10;;;5.80;99.90;;;;;;5103705;28;20526;-70
2022/04/29 00:44:50;;;;;;;7.07;2.83;;;5.80;99.90;;;;;;5098197;28;20196;-70
2022/04/29 00:47:19;;;;;;;4.40;2.53;;;5.70;99.90;;;;;;5102763;28;20481;-70
2022/04/29 00:49:46;;;;;;;7.37;3.10;;;5.70;99.90;;;;;;5095664;28;20431;-68
2022/04/29 00:52:20;;;;;;;6.93;2.80;;;5.70;99.90;;;;;;5099396;28;20568;-70
2022/04/29 00:54:52;;;;;;;6.23;2.93;;;5.60;99.90;;;;;;5096488;28;20452;-70
2022/04/29 00:57:43;;;;;;;5.63;2.53;;;5.70;99.90;;;;;;5103738;28;20449;-69
2022/04/29 01:00:11;;;;;;;4.63;2.57;;;5.60;99.90;;;;;;5074820;28;21198;-69
2022/04/29 01:02:42;;;;;;;5.57;2.60;;;5.60;99.90;;;;;;5096608;28;20462;-70
2022/04/29 01:05:10;;;;;;;5.60;3.50;;;5.60;99.90;;;;;;5102829;28;20503;-70
2022/04/29 01:07:37;;;;;;;4.30;2.60;;;5.60;99.90;;;;;;5103170;28;20622;-69
2022/04/29 01:10:04;;;;;;;5.80;2.60;;;5.50;99.90;;;;;;5101671;28;20441;-69
2022/04/29 01:12:35;;;;;;;3.73;1.90;;;5.50;99.90;;;;;;5104663;28;20468;-70
2022/04/29 01:15:10;;;;;;;4.63;2.63;;;5.40;99.90;;;;;;5104084;28;20463;-70
2022/04/29 01:17:37;;;;;;;7.17;3.40;;;5.40;99.90;;;;;;5101330;28;20443;-70
2022/04/29 01:20:08;;;;;;;5.37;2.93;;;5.30;99.90;;;;;;5102553;28;20511;-70
2022/04/29 01:22:34;;;;;;;6.50;2.70;;;5.40;99.90;;;;;;5101498;28;20457;-68
2022/04/29 01:25:01;;;;;;;5.40;3.27;;;5.40;99.90;;;;;;5104052;28;20437;-68
2022/04/29 01:27:27;;;;;;;5.87;3.53;;;5.30;99.90;;;;;;5097204;28;20843;-68
2022/04/29 01:30:10;;;;;;;6.80;3.50;;;5.30;99.90;;;;;;5085264;28;20537;-68
2022/04/29 01:32:37;;;;;;;4.40;2.67;;;5.30;99.90;;;;;;5100551;28;20183;-68
2022/04/29 01:35:04;;;;;;;3.70;2.57;;;5.30;99.90;;;;;;5106623;28;20476;-68
2022/04/29 01:37:30;;;;;;;3.80;2.30;;;5.20;99.90;;;;;;5103309;28;20453;-68
2022/04/29 01:39:56;;;;;;;6.43;2.27;;;5.30;99.90;;;;;;5100793;28;20472;-68
2022/04/29 01:42:22;;;;;;;8.60;2.83;;;5.30;99.90;;;;;;5105672;28;20207;-68
2022/04/29 01:44:48;;;;;;;14.23;3.20;;;5.20;99.90;;;;;;5102356;28;20496;-68
2022/04/29 01:47:14;;;;;;;4.57;2.67;;;5.10;99.90;;;;;;5103634;28;20467;-68
2022/04/29 01:49:40;;;;;;;4.60;2.57;;;5.10;99.90;;;;;;5098807;28;20194;-68
2022/04/29 01:52:06;;;;;;;6.13;2.83;;;5.10;99.90;;;;;;5104512;28;20441;-68
2022/04/29 01:54:32;;;;;;;3.97;2.70;;;5.00;99.90;;;;;;5105254;28;20445;-68
2022/04/29 01:56:58;;;;;;;5.23;3.27;;;5.00;99.90;;;;;;5108281;28;20448;-68
2022/04/29 01:59:24;;;;;;;3.80;2.57;;;5.00;99.90;;;;;;5105057;28;20229;-68
2022/04/29 02:01:49;;;;;;;8.67;2.90;;;5.00;99.90;;;;;;5107500;28;20203;-68
2022/04/29 02:04:16;;;;;;;4.40;3.53;;;5.00;99.90;;;;;;5108376;28;20198;-68
2022/04/29 02:06:42;;;;;;;6.03;3.77;;;5.00;99.90;;;;;;5106544;28;20333;-68
2022/04/29 02:09:08;;;;;;;4.93;2.37;;;4.90;99.90;;;;;;5105498;28;20445;-69
2022/04/29 02:11:37;;;;;;;13.23;3.60;;;4.90;99.90;;;;;;5104765;28;20442;-69
2022/04/29 02:14:02;;;;;;;3.90;2.40;;;4.90;99.90;;;;;;5103671;28;20445;-69
2022/04/29 02:16:28;;;;;;;6.07;3.33;;;4.90;99.90;;;;;;5102997;28;20723;-69
2022/04/29 02:18:54;;;;;;;8.53;4.07;;;4.90;99.90;;;;;;5099784;28;20565;-69
2022/04/29 02:21:20;;;;;;;3.30;2.20;;;4.90;99.90;;;;;;5101129;28;20190;-69
2022/04/29 02:23:46;;;;;;;8.70;2.80;;;4.80;99.90;;;;;;5107201;28;20644;-69
2022/04/29 02:26:12;;;;;;;11.40;2.50;;;4.80;99.90;;;;;;5101557;28;20446;-69
2022/04/29 02:28:37;;;;;;;5.10;2.50;;;4.80;99.90;;;;;;5101860;28;20691;-69
2022/04/29 02:31:04;;;;;;;7.87;3.50;;;4.80;99.90;;;;;;5102863;28;20233;-69
2022/04/29 02:33:31;;;;;;;4.40;2.50;;;4.80;99.90;;;;;;5098234;28;20208;-69
2022/04/29 02:35:56;;;;;;;4.00;2.47;;;4.80;99.90;;;;;;5106090;28;20461;-69
2022/04/29 02:38:22;;;;;;;3.43;2.37;;;4.80;99.90;;;;;;5093202;28;20544;-69
2022/04/29 02:40:51;;;;;;;5.23;2.93;;;4.80;99.90;;;;;;5095992;28;20188;-69
2022/04/29 02:43:18;;;;;;;5.30;3.17;;;4.70;99.90;;;;;;5103006;28;20829;-70
2022/04/29 02:45:44;;;;;;;6.63;3.13;;;4.70;99.90;;;;;;5098257;28;21037;-70
2022/04/29 02:48:10;;;;;;;3.67;2.40;;;4.70;99.90;;;;;;5104452;28;20755;-70
2022/04/29 02:50:36;;;;;;;5.17;2.70;;;4.70;99.90;;;;;;5107037;28;20532;-70
2022/04/29 02:53:02;;;;;;;4.80;2.70;;;4.70;99.90;;;;;;5103303;28;20192;-69
2022/04/29 02:55:28;;;;;;;6.03;2.90;;;4.70;99.90;;;;;;5104567;28;20916;-70
2022/04/29 02:57:53;;;;;;;6.43;3.20;;;4.70;99.90;;;;;;5107820;28;20449;-69
2022/04/29 03:00:19;;;;;;;10.33;2.87;;;4.70;99.90;;;;;;5101950;28;20180;-69
2022/04/29 03:02:44;;;;;;;4.93;2.63;;;4.70;99.90;;;;;;5105089;28;20234;-69
2022/04/29 03:05:10;;;;;;;6.60;2.93;;;4.70;99.90;;;;;;5107327;28;20206;-69
2022/04/29 03:07:36;;;;;;;8.60;3.30;;;4.60;99.90;;;;;;5099765;28;20181;-69
2022/04/29 03:10:01;;;;;;;4.67;2.47;;;4.60;99.90;;;;;;5103326;28;20926;-69
2022/04/29 03:12:27;;;;;;;5.90;2.80;;;4.60;99.90;;;;;;5107447;28;20190;-69
2022/04/29 03:14:53;;;;;;;6.57;3.10;;;4.70;99.90;;;;;;5105265;28;20662;-69
2022/04/29 03:20:04;;;;;;;5.37;3.10;;;4.50;99.90;;;;;;5102156;28;20199;-69
2022/04/29 03:22:30;;;;;;;4.73;2.63;;;4.40;99.90;;;;;;5101946;28;20465;-69
2022/04/29 03:24:55;;;;;;;5.60;3.40;;;4.40;99.90;;;;;;5105095;28;20491;-69
2022/04/29 03:27:21;;;;;;;4.63;3.00;;;4.50;99.90;;;;;;5097614;28;20188;-69
2022/04/29 03:29:47;;;;;;;15.73;4.40;;;4.40;99.90;;;;;;5094717;28;20210;-69
2022/04/29 03:32:13;;;;;;;26.53;10.27;;;4.40;99.90;;;;;;5094954;28;20644;-69
2022/04/29 03:34:39;;;;;;;24.43;10.07;;;4.40;99.90;;;;;;5104822;28;20488;-69
2022/04/29 03:37:05;;;;;;;8.83;4.70;;;4.40;99.90;;;;;;5102659;28;20482;-69
2022/04/29 03:39:30;;;;;;;5.30;3.43;;;4.40;99.90;;;;;;5102600;28;20278;-69
2022/04/29 03:41:56;;;;;;;5.83;3.40;;;4.40;99.90;;;;;;5103076;28;20584;-69
2022/04/29 03:44:22;;;;;;;8.00;3.70;;;4.30;99.90;;;;;;5103397;28;20187;-69
2022/04/29 03:46:48;;;;;;;4.33;2.70;;;4.30;99.90;;;;;;5106731;28;20652;-69
2022/04/29 03:51:58;;;;;;;6.27;3.13;;;4.20;99.90;;;;;;5099606;28;20264;-69
2022/04/29 03:54:23;;;;;;;5.90;3.47;;;4.10;99.90;;;;;;5104594;28;20445;-69
2022/04/29 03:56:49;;;;;;;5.53;3.10;;;4.20;99.90;;;;;;5103797;28;20192;-69
2022/04/29 03:59:15;;;;;;;6.17;3.07;;;4.10;99.90;;;;;;5099093;28;20192;-69
2022/04/29 04:01:42;;;;;;;4.20;2.47;;;4.20;99.90;;;;;;5100245;28;20668;-69
2022/04/29 04:04:07;;;;;;;5.73;3.07;;;4.20;99.90;;;;;;5086177;28;20649;-69
2022/04/29 04:06:52;;;;;;;8.07;3.30;;;4.10;99.90;;;;;;5087040;28;20458;-69
2022/04/29 04:09:23;;;;;;;8.60;3.53;;;4.20;99.90;;;;;;5088198;28;20639;-69
2022/04/29 04:11:49;;;;;;;10.20;3.50;;;4.20;99.90;;;;;;5100840;28;20483;-69
2022/04/29 04:14:16;;;;;;;6.47;3.70;;;4.30;99.90;;;;;;5100723;28;20941;-69
2022/04/29 04:16:42;;;;;;;6.37;3.70;;;4.20;99.90;;;;;;5102670;28;20466;-69
2022/04/29 04:19:09;;;;;;;5.40;3.57;;;4.20;99.90;;;;;;5091485;28;20460;-69
2022/04/29 04:21:35;;;;;;;6.10;3.20;;;4.20;99.90;;;;;;5101299;28;20179;-69
2022/04/29 04:24:00;;;;;;;4.50;3.13;;;4.20;99.90;;;;;;5097482;28;20476;-69
2022/04/29 04:26:26;;;;;;;7.43;3.90;;;4.30;99.90;;;;;;5096621;28;20219;-69
2022/04/29 04:28:52;;;;;;;6.00;3.47;;;4.30;99.90;;;;;;5088007;28;20190;-70
2022/04/29 04:31:21;;;;;;;6.90;4.00;;;4.30;99.90;;;;;;5096410;28;20199;-69
2022/04/29 04:33:47;;;;;;;7.57;3.67;;;4.30;99.90;;;;;;5104126;28;20314;-70
2022/04/29 04:36:12;;;;;;;6.70;3.63;;;4.30;99.90;;;;;;5099764;28;20543;-69
2022/04/29 04:38:38;;;;;;;6.00;3.30;;;4.30;99.90;;;;;;5102071;28;20448;-69
2022/04/29 04:41:04;;;;;;;3.73;2.63;;;4.40;99.90;;;;;;5103219;28;20260;-69
2022/04/29 04:43:30;;;;;;;8.27;3.50;;;4.50;99.90;;;;;;5096093;28;20323;-69
2022/04/29 04:45:56;;;;;;;10.73;3.97;;;4.50;99.90;;;;;;5107518;28;20798;-69
2022/04/29 04:48:22;;;;;;;6.53;3.60;;;4.60;99.90;;;;;;5104353;28;20201;-69
2022/04/29 04:50:47;;;;;;;6.43;3.40;;;4.60;99.90;;;;;;5104194;28;20418;-69
2022/04/29 04:53:13;;;;;;;6.00;3.60;;;4.60;99.90;;;;;;5104455;28;20183;-70
2022/04/29 04:55:40;;;;;;;14.00;6.40;;;4.70;99.90;;;;;;5085625;28;20196;-69
2022/04/29 04:58:06;;;;;;;13.40;6.43;;;4.70;99.90;;;;;;5103949;28;20457;-69
2022/04/29 05:00:32;;;;;;;11.63;4.47;;;4.80;99.90;;;;;;5103583;28;20421;-69
2022/04/29 05:02:58;;;;;;;11.23;5.00;;;4.80;99.90;;;;;;5094273;28;20477;-69
2022/04/29 05:05:24;;;;;;;10.67;5.40;;;4.80;99.90;;;;;;5104723;28;20425;-70
2022/04/29 05:07:49;;;;;;;11.13;4.73;;;4.90;99.90;;;;;;5101336;28;20184;-69
2022/04/29 05:10:15;;;;;;;15.23;4.53;;;5.00;99.90;;;;;;5098290;28;20262;-69
2022/04/29 05:12:46;;;;;;;9.17;4.77;;;5.10;99.90;;;;;;5099459;28;20194;-69
2022/04/29 05:15:13;;;;;;;7.03;3.90;;;5.20;99.90;;;;;;5097989;28;20457;-69
2022/04/29 05:17:40;;;;;;;11.23;3.33;;;5.20;99.90;;;;;;5098008;28;20429;-68
2022/04/29 05:20:07;;;;;;;8.77;3.70;;;5.30;99.90;;;;;;5097778;28;20471;-67
2022/04/29 05:22:33;;;;;;;9.57;3.87;;;5.40;99.90;;;;;;5102511;28;20515;-68
2022/04/29 05:24:59;;;;;;;8.63;3.47;;;5.40;99.90;;;;;;5104472;28;20505;-68
2022/04/29 05:27:24;;;;;;;7.40;5.03;;;5.50;99.90;;;;;;5099710;28;20188;-68
2022/04/29 05:29:50;;;;;;;14.77;4.47;;;5.60;99.90;;;;;;5080056;28;20185;-68
2022/04/29 05:32:16;;;;;;;9.57;3.60;;;5.70;99.90;;;;;;5096191;28;20203;-68
2022/04/29 05:34:43;;;;;;;7.43;4.20;;;5.90;99.90;;;;;;5101364;28;20561;-69
2022/04/29 05:37:09;;;;;;;6.83;4.23;;;5.90;99.90;;;;;;5104205;28;20933;-68
2022/04/29 05:42:21;;;;;;;8.40;5.00;;;6.10;99.90;;;;;;5106194;28;20218;-68
2022/04/29 05:44:47;;;;;;;8.33;4.13;;;6.20;99.90;;;;;;5105099;28;20429;-68
2022/04/29 05:47:13;;;;;;;7.60;4.07;;;6.30;99.90;;;;;;5106217;28;20425;-68
2022/04/29 05:49:39;;;;;;;6.47;4.20;;;6.40;99.90;;;;;;5105218;28;20656;-68
2022/04/29 05:52:06;;;;;;;6.47;3.90;;;6.50;99.90;;;;;;5107285;28;20191;-68
2022/04/29 05:54:32;;;;;;;11.93;5.63;;;6.50;99.90;;;;;;5096361;28;20194;-68
2022/04/29 05:56:59;;;;;;;9.70;4.80;;;6.60;99.90;;;;;;5090818;28;20436;-68
2022/04/29 05:59:25;;;;;;;10.60;5.10;;;6.70;99.90;;;;;;5101928;28;20417;-68
2022/04/29 06:01:51;;;;;;;9.70;5.40;;;6.80;99.90;;;;;;5099513;28;20422;-68
2022/04/29 06:04:17;;;;;;;9.77;4.60;;;7.00;99.90;;;;;;5105011;28;20781;-67
2022/04/29 06:06:42;;;;;;;17.03;4.80;;;7.10;99.90;;;;;;5105974;28;20194;-67
2022/04/29 06:09:08;;;;;;;9.73;5.50;;;7.20;99.90;;;;;;5100145;28;20190;-67
2022/04/29 06:11:34;;;;;;;11.20;5.60;;;7.40;99.90;;;;;;5105845;28;20258;-69
2022/04/29 06:14:00;;;;;;;16.23;5.47;;;7.50;99.90;;;;;;5106444;28;20505;-70
2022/04/29 06:16:26;;;;;;;13.20;5.00;;;7.70;99.90;;;;;;5107610;28;20547;-70
2022/04/29 06:18:52;;;;;;;8.90;4.30;;;7.90;99.90;;;;;;5098915;28;20196;-67
2022/04/29 06:21:18;;;;;;;14.80;5.63;;;8.10;99.90;;;;;;5107414;28;20429;-67
2022/04/29 06:23:48;;;;;;;10.07;4.00;;;8.30;99.90;;;;;;5110679;28;20203;-67
2022/04/29 06:26:14;;;;;;;13.70;4.57;;;8.40;99.90;;;;;;5109588;28;20441;-67
2022/04/29 06:28:40;;;;;;;8.27;4.77;;;8.50;99.90;;;;;;5093907;28;20468;-67
2022/04/29 06:31:06;;;;;;;23.10;4.90;;;8.80;99.90;;;;;;5096473;28;20418;-67
2022/04/29 06:33:33;;;;;;;8.40;4.73;;;9.00;99.90;;;;;;5104066;28;20433;-68
2022/04/29 06:36:00;;;;;;;12.70;5.50;;;9.20;99.90;;;;;;5109323;28;20464;-68
2022/04/29 06:38:25;;;;;;;8.57;4.50;;;9.40;99.90;;;;;;5105345;28;20445;-68
2022/04/29 06:40:52;;;;;;;12.27;5.23;;;9.60;99.90;;;;;;5104363;28;20943;-68
2022/04/29 06:43:19;;;;;;;9.87;5.73;;;9.90;99.90;;;;;;5105207;28;20207;-68
2022/04/29 06:45:45;;;;;;;10.30;5.50;;;10.00;98.70;;;;;;5104430;28;20441;-70
2022/04/29 06:48:10;;;;;;;11.00;5.50;;;10.30;98.30;;;;;;5094222;28;20461;-69
2022/04/29 06:50:36;;;;;;;9.73;5.30;;;10.50;97.30;;;;;;5103093;28;20582;-69
2022/04/29 06:53:02;;;;;;;14.63;6.10;;;10.80;96.60;;;;;;5101086;28;20203;-69
2022/04/29 06:55:27;;;;;;;17.00;5.87;;;11.00;96.30;;;;;;5107937;28;20747;-70
2022/04/29 06:57:53;;;;;;;14.57;5.10;;;11.10;96.60;;;;;;5100312;28;20203;-69
2022/04/29 07:00:19;;;;;;;11.40;5.17;;;11.30;97.00;;;;;;5096594;28;20188;-69
2022/04/29 07:02:46;;;;;;;10.27;5.57;;;11.40;96.40;;;;;;5099342;28;20248;-69
2022/04/29 07:05:12;;;;;;;10.50;5.43;;;11.60;93.90;;;;;;5107059;28;20484;-70
2022/04/29 07:07:37;;;;;;;12.33;4.60;;;11.80;93.50;;;;;;5102748;28;20445;-70
2022/04/29 07:10:05;;;;;;;15.13;5.00;;;11.90;93.40;;;;;;5099293;28;20441;-69
2022/04/29 07:12:33;;;;;;;10.30;4.30;;;12.20;92.60;;;;;;5103263;28;20199;-69
2022/04/29 07:14:59;;;;;;;10.47;3.70;;;12.50;92.10;;;;;;5101202;28;20450;-69
2022/04/29 07:17:24;;;;;;;8.83;4.67;;;12.80;91.30;;;;;;5095031;28;20502;-69
2022/04/29 07:19:50;;;;;;;7.93;4.50;;;13.10;90.80;;;;;;5100215;28;20548;-69
2022/04/29 07:22:16;;;;;;;6.80;4.10;;;13.30;90.60;;;;;;5101040;28;20604;-69
2022/04/29 07:24:42;;;;;;;6.27;3.90;;;13.60;89.60;;;;;;5104072;28;20554;-69
2022/04/29 07:27:08;;;;;;;8.80;4.03;;;13.90;86.20;;;;;;5098951;28;20437;-67
2022/04/29 07:29:34;;;;;;;10.90;4.67;;;14.20;85.40;;;;;;5102040;28;20441;-67
2022/04/29 07:32:00;;;;;;;11.13;4.83;;;14.70;84.60;;;;;;5102143;28;20715;-67
2022/04/29 07:43:16;;;;;;;8.60;5.10;;;17.20;76.40;;;;;;5071035;28;20509;-65
2022/04/29 07:45:42;;;;;;;10.23;3.80;;;16.60;77.30;;;;;;5070110;28;20448;-66
2022/04/29 07:48:08;;;;;;;7.37;3.60;;;16.30;78.30;;;;;;5068972;28;20212;-64
2022/04/29 07:50:35;;;;;;;6.43;3.60;;;16.00;78.10;;;;;;5046878;28;20448;-66
2022/04/29 07:53:02;;;;;;;7.00;3.90;;;15.90;78.40;;;;;;5059135;28;20577;-67
2022/04/29 07:55:29;;;;;;;7.17;3.40;;;16.30;77.90;;;;;;5047763;28;20448;-67
2022/04/29 07:57:57;;;;;;;7.00;3.87;;;16.60;76.80;;;;;;5051918;28;20561;-67
2022/04/29 08:00:23;;;;;;;8.60;3.73;;;16.90;76.60;;;;;;5043541;28;21288;-67
2022/04/29 08:02:48;;;;;;;6.40;3.77;;;17.30;74.30;;;;;;5050816;28;20521;-67
2022/04/29 08:05:14;;;;;;;8.10;3.93;;;17.70;74.80;;;;;;5047501;28;20659;-67
2022/04/29 08:07:40;;;;;;;9.27;4.00;;;18.50;71.60;;;;;;5053036;28;20607;-67
2022/04/29 08:10:07;;;;;;;7.10;3.50;;;18.60;71.10;;;;;;5049497;28;20185;-67
2022/04/29 08:12:32;;;;;;;5.97;3.57;;;18.50;72.50;;;;;;5047568;28;20302;-67
2022/04/29 08:14:59;;;;;;;19.63;5.17;;;18.40;72.70;;;;;;5044851;28;20944;-67
2022/04/29 08:17:25;;;;;;;7.50;3.90;;;18.30;68.50;;;;;;5049040;28;20316;-67
2022/04/29 08:19:52;;;;;;;10.53;4.67;;;17.90;71.30;;;;;;5052361;28;20523;-67
2022/04/29 08:22:18;;;;;;;6.23;3.63;;;17.50;71.00;;;;;;5054428;28;21128;-67
2022/04/29 08:24:45;;;;;;;7.50;3.20;;;17.20;71.20;;;;;;5052126;28;20465;-67
2022/04/29 08:27:11;;;;;;;4.83;3.00;;;16.80;73.30;;;;;;5041318;28;20550;-65
2022/04/29 08:29:37;;;;;;;8.30;2.90;;;16.60;72.10;;;;;;5049171;28;20866;-67
2022/04/29 08:32:05;;;;;;;6.43;3.20;;;17.10;73.40;;;;;;5047205;28;20432;-67
2022/04/29 08:34:31;;;;;;;8.13;3.33;;;17.20;70.00;;;;;;5049979;28;20447;-65
2022/04/29 08:36:57;;;;;;;6.37;3.20;;;17.40;68.70;;;;;;5049777;28;20559;-63
2022/04/29 08:39:23;;;;;;;7.27;4.00;;;17.80;70.20;;;;;;5052609;28;20447;-65
2022/04/29 08:41:50;;;;;;;9.60;2.90;;;18.20;66.20;;;;;;5046673;28;20190;-66
2022/04/29 08:44:19;;;;;;;7.13;3.80;;;18.30;66.10;;;;;;5048779;28;20650;-68
2022/04/29 08:46:45;;;;;;;8.10;3.20;;;18.70;65.60;;;;;;5045313;28;20483;-66
2022/04/29 08:49:10;;;;;;;6.50;2.70;;;18.60;65.70;;;;;;5047562;28;20444;-66
2022/04/29 08:51:39;;;;;;;8.40;2.73;;;19.20;63.80;;;;;;5044756;28;20455;-66
2022/04/29 08:54:05;;;;;;;7.40;3.33;;;19.40;65.40;;;;;;5048302;28;20185;-66
2022/04/29 08:59:25;;;;;;;8.10;3.00;;;20.20;60.40;;;;;;5037499;28;20207;-66
2022/04/29 09:01:52;;;;;;;9.55;3.40;;;20.10;63.60;;;;;;5032891;28;20445;-66
2022/04/29 09:04:18;;;;;;;10.10;2.93;;;20.20;63.40;;;;;;5036706;28;20589;-66
2022/04/29 09:06:48;;;;;;;6.13;2.70;;;20.10;60.30;;;;;;5053515;28;20489;-67
2022/04/29 09:09:14;;;;;;;8.37;3.40;;;20.40;60.60;;;;;;5056146;28;20427;-66
2022/04/29 09:11:40;;;;;;;6.37;3.20;;;20.80;58.00;;;;;;5058606;28;20795;-66
2022/04/29 09:14:20;;;;;;;5.30;2.70;;;20.10;58.40;;;;;;5059503;28;20208;-66
2022/04/29 09:16:48;;;;;;;9.60;2.50;;;20.10;58.10;;;;;;5057298;28;20185;-66
2022/04/29 09:19:35;;;;;;;6.37;3.30;;;19.70;59.10;;;;;;5050112;28;20434;-66
2022/04/29 09:22:09;;;;;;;5.67;2.77;;;19.80;58.80;;;;;;5045480;28;20477;-66
2022/04/29 09:24:35;;;;;;;5.83;2.80;;;19.90;60.10;;;;;;5056588;28;20436;-66
2022/04/29 09:27:03;;;;;;;5.57;3.37;;;20.00;59.70;;;;;;5049697;28;20447;-66
2022/04/29 09:29:29;;;;;;;6.90;3.27;;;19.70;60.10;;;;;;5049765;28;20510;-68
2022/04/29 09:32:01;;;;;;;8.13;3.07;;;19.50;58.50;;;;;;5047598;28;20577;-67
2022/04/29 09:34:46;;;;;;;5.10;2.47;;;20.10;58.40;;;;;;5045189;28;20184;-67
2022/04/29 09:37:19;;;;;;;5.30;3.03;;;19.20;58.50;;;;;;5048586;28;20527;-67
2022/04/29 09:39:57;;;;;;;4.83;2.70;;;18.60;58.80;;;;;;5036558;28;20462;-66
2022/04/29 09:42:23;;;;;;;6.10;3.10;;;18.60;61.10;;;;;;5046694;28;20463;-66
2022/04/29 09:44:49;;;;;;;5.50;3.23;;;18.40;59.60;;;;;;5034962;28;20440;-65
2022/04/29 09:47:17;;;;;;;5.10;2.90;;;18.60;59.90;;;;;;5037391;28;20460;-66
2022/04/29 09:49:55;;;;;;;8.17;3.53;;;18.00;59.70;;;;;;5039154;28;20472;-65
2022/04/29 09:52:22;;;;;;;5.47;2.40;;;18.10;59.50;;;;;;5045587;28;20418;-66
2022/04/29 09:54:48;;;;;;;5.20;2.60;;;17.50;61.80;;;;;;5048851;28;20503;-64
2022/04/29 09:57:17;;;;;;;5.53;2.77;;;17.00;63.30;;;;;;5046515;28;20536;-65
2022/04/29 09:59:47;;;;;;;5.60;2.67;;;16.90;66.50;;;;;;5048876;28;20469;-66
2022/04/29 10:02:21;;;;;;;6.03;2.60;;;17.00;63.30;;;;;;5053793;28;20890;-63
2022/04/29 10:04:48;;;;;;;4.97;3.00;;;16.80;60.90;;;;;;5052925;28;20535;-66
2022/04/29 10:07:16;;;;;;;5.93;3.00;;;17.00;62.40;;;;;;5053902;28;20443;-66
2022/04/29 10:09:50;;;;;;;3.80;2.30;;;17.20;62.30;;;;;;5047929;28;20466;-66
2022/04/29 10:12:20;;;;;;;7.23;2.50;;;17.30;63.80;;;;;;5047397;28;20476;-66
2022/04/29 10:14:48;;;;;;;4.50;2.60;;;17.60;60.80;;;;;;5053290;28;20797;-65
2022/04/29 10:22:53;;;;;;;3.53;2.07;;;17.70;60.90;;;;;;5051984;28;20544;-66
2022/04/29 10:25:21;;;;;;;6.93;2.63;;;17.80;60.00;;;;;;5056278;28;20420;-66
2022/04/29 10:27:49;;;;;;;4.27;2.67;;;18.00;62.80;;;;;;5045141;28;20524;-66
2022/04/29 10:30:23;;;;;;;7.20;3.40;;;17.90;60.50;;;;;;5054584;28;20830;-67
2022/04/29 10:33:05;;;;;;;4.27;2.40;;;17.70;58.70;;;;;;5052744;28;20919;-66
2022/04/29 10:35:40;;;;;;;3.80;2.00;;;17.90;63.10;;;;;;5055277;28;20420;-67
2022/04/29 10:38:15;;;;;;;7.73;2.30;;;18.20;61.30;;;;;;5057155;28;20525;-66
2022/04/29 10:40:43;;;;;;;14.80;3.23;;;18.20;61.60;;;;;;5054485;28;20418;-66
2022/04/29 10:43:10;;;;;;;5.10;2.70;;;18.10;61.10;;;;;;5054587;28;20455;-69
2022/04/29 10:46:05;;;;;;;9.10;3.10;;;17.70;60.70;;;;;;5055941;28;20427;-68
2022/04/29 10:48:34;;;;;;;5.07;2.70;;;17.60;62.50;;;;;;5046028;28;21017;-68
2022/04/29 10:51:25;;;;;;;4.67;2.33;;;17.70;61.20;;;;;;5049047;28;20416;-65
2022/04/29 10:53:52;;;;;;;4.23;2.53;;;18.00;59.30;;;;;;5049258;28;20407;-67
2022/04/29 10:56:30;;;;;;;9.83;3.37;;;18.20;59.40;;;;;;5047401;28;20412;-68
2022/04/29 10:59:12;;;;;;;7.87;2.67;;;18.20;59.40;;;;;;5048520;28;20510;-67
2022/04/29 11:01:39;;;;;;;10.53;2.63;;;18.20;59.70;;;;;;5042551;28;21014;-65
2022/04/29 11:04:15;;;;;;;8.17;3.20;;;17.90;58.60;;;;;;5045864;28;20491;-65
2022/04/29 11:06:46;;;;;;;8.33;2.77;;;18.30;59.90;;;;;;5041418;28;20549;-65
2022/04/29 11:09:35;;;;;;;3.60;1.87;;;18.60;58.30;;;;;;5044994;28;20416;-65
2022/04/29 11:12:02;;;;;;;4.40;2.27;;;18.70;57.10;;;;;;5050331;28;20527;-67
2022/04/29 11:14:28;;;;;;;4.80;2.13;;;18.90;59.70;;;;;;5048296;28;20417;-66
2022/04/29 11:17:14;;;;;;;4.77;2.73;;;18.30;58.10;;;;;;5056987;28;20438;-65
2022/04/29 11:19:45;;;;;;;2.60;1.60;;;18.40;55.70;;;;;;5033516;28;20224;-67
2022/04/29 11:25:01;;;;;;;3.43;2.07;;;18.50;59.00;;;;;;5072590;28;20434;-66
2022/04/29 11:27:29;;;;;;;4.83;2.67;;;18.60;57.40;;;;;;5079869;28;20440;-66
2022/04/29 11:32:29;;;;;;;3.13;2.10;;;18.70;54.40;;;;;;5113865;27;20471;-67
2022/04/29 11:34:55;;;;;;;3.00;1.63;;;18.80;53.40;;;;;;5115564;27;20417;-67
2022/04/29 11:37:26;;;;;;;4.57;2.03;;;18.60;55.50;;;;;;5116205;27;20429;-67
2022/04/29 11:39:54;;;;;;;7.47;2.30;;;18.40;55.80;;;;;;5113943;27;20646;-67
2022/04/29 11:42:20;;;;;;;11.63;2.30;;;18.30;55.60;;;;;;5124491;27;20461;-67
2022/04/29 11:44:49;;;;;;;2.30;1.67;;;18.20;56.40;;;;;;5113279;27;20482;-67
2022/04/29 11:47:16;;;;;;;4.27;1.30;;;18.40;56.40;;;;;;5116088;27;20547;-67
2022/04/29 11:49:43;;;;;;;5.40;2.50;;;18.60;56.20;;;;;;5117018;27;20539;-67
2022/04/29 11:52:17;;;;;;;2.23;1.53;;;18.90;55.40;;;;;;5119093;27;20437;-67
2022/04/29 11:54:53;;;;;;;6.10;1.70;;;18.80;54.30;;;;;;5114662;27;20436;-67
2022/04/29 11:57:22;;;;;;;2.97;1.70;;;18.70;55.60;;;;;;5110862;27;20453;-67
2022/04/29 11:59:48;;;;;;;3.83;2.17;;;18.40;54.80;;;;;;5113712;27;20979;-67
2022/04/29 12:02:21;;;;;;;4.37;2.23;;;18.50;54.50;;;;;;5095468;28;20449;-68
2022/04/29 12:05:02;;;;;;;5.23;2.37;;;18.70;53.50;;;;;;5113125;27;20919;-67
2022/04/29 12:07:37;;;;;;;3.77;1.93;;;18.50;56.50;;;;;;5104710;27;20421;-67
2022/04/29 12:10:26;;;;;;;3.43;1.97;;;18.60;53.90;;;;;;5114797;27;20452;-67
2022/04/29 12:12:59;;;;;;;5.30;2.17;;;18.60;55.00;;;;;;5108264;27;20424;-67
2022/04/29 12:15:30;;;;;;;3.47;2.00;;;18.60;56.40;;;;;;5114375;27;20504;-68
2022/04/29 12:17:58;;;;;;;4.37;1.83;;;18.60;56.60;;;;;;5117797;27;20426;-67
2022/04/29 12:20:24;;;;;;;4.27;2.33;;;18.80;56.40;;;;;;5110638;27;20818;-67
2022/04/29 12:22:50;;;;;;;5.53;2.50;;;19.30;54.90;;;;;;5123378;27;20471;-67
2022/04/29 12:25:26;;;;;;;4.43;2.27;;;19.60;54.30;;;;;;5119107;27;20417;-67
2022/04/29 12:28:14;;;;;;;4.67;1.80;;;19.70;55.90;;;;;;5121743;27;20221;-67
2022/04/29 12:37:03;;;;;;;5.13;2.07;;;20.20;54.10;;;;;;5111431;27;20466;-67
2022/04/29 12:39:35;;;;;;;4.80;2.37;;;19.80;56.20;;;;;;5113315;27;20594;-67
2022/04/29 12:42:03;;;;;;;3.50;2.30;;;19.70;54.90;;;;;;5101707;27;20510;-67
2022/04/29 12:47:39;;;;;;;8.00;2.50;;;19.80;55.70;;;;;;5117547;27;20448;-67
2022/04/29 12:50:24;;;;;;;6.67;2.53;;;19.80;55.60;;;;;;5116907;27;20424;-67
2022/04/29 12:52:50;;;;;;;5.23;2.67;;;19.90;56.20;;;;;;5115819;27;20477;-68
2022/04/29 12:55:16;;;;;;;5.53;2.73;;;19.60;56.50;;;;;;5120690;27;20421;-67
2022/04/29 12:57:41;;;;;;;6.00;3.03;;;19.40;55.40;;;;;;5122208;27;20251;-67
2022/04/29 13:00:08;;;;;;;3.90;2.47;;;19.50;56.40;;;;;;5113829;27;21004;-67
2022/04/29 13:02:34;;;;;;;4.00;2.23;;;19.00;56.70;;;;;;5109649;27;20208;-67
2022/04/29 13:04:59;;;;;;;7.00;2.63;;;18.90;56.50;;;;;;5109931;27;20483;-67
2022/04/29 13:07:25;;;;;;;4.83;2.87;;;19.00;56.70;;;;;;5113582;27;20743;-67
2022/04/29 13:09:51;;;;;;;4.03;2.60;;;19.00;56.60;;;;;;5113530;27;20185;-67
2022/04/29 13:12:18;;;;;;;7.03;2.17;;;19.00;55.90;;;;;;5091479;27;20191;-67
2022/04/29 13:14:43;;;;;;;4.40;2.80;;;18.90;56.90;;;;;;5105805;27;20643;-67
2022/04/29 13:17:09;;;;;;;5.37;2.73;;;18.80;56.30;;;;;;5109299;27;20437;-67
2022/04/29 13:19:37;;;;;;;5.17;2.40;;;18.80;55.60;;;;;;5107787;28;20185;-67
2022/04/29 13:22:03;;;;;;;6.93;2.57;;;18.70;58.50;;;;;;5115309;27;20184;-69
2022/04/29 13:24:28;;;;;;;9.73;3.20;;;18.70;58.10;;;;;;5115863;27;20895;-67
2022/04/29 13:26:54;;;;;;;7.77;3.00;;;18.50;58.20;;;;;;5112741;27;20179;-67
2022/04/29 13:29:20;;;;;;;4.17;2.30;;;18.50;58.20;;;;;;5109342;27;20248;-68
2022/04/29 13:31:45;;;;;;;6.67;2.67;;;18.80;57.00;;;;;;5115558;28;20198;-67
2022/04/29 13:34:11;;;;;;;4.80;3.23;;;18.80;56.80;;;;;;5111541;28;20195;-67